Ana Sayfa
METAR-TAF:

METAR-TAF

Havaalanları :

Hickory, Kuzey Carolina, Amerika Birleşik Devletleri

Enlem: 35-44-32N, Boylam: 081-22-56W, yükseklik: 362 m

Güncel hava durumu gözlemi

Rapor saat 23:53 UTC de 47 dakika önce yapıldı.
Sakin rüzgar
Sıcaklık 17°C
Nem 55%
Basınç 1018 hPa
Görüş mesafesi: 16.1 km
Açık gökyüzü

METAR: KHKY 232353Z 00000KT 10SM CLR 17/08 A3005 RMK AO2 SLP162 T01670083 10228 20161 53009

Saat: 20:40 (00:40 UTC)

Tahmin

Rapor saat 23:20 UTC de 1 saat ve 20 dakika önce yapıldı.
Ayın 24'si saat 00 UTC'den ayın 24'si saat 24 UTC'ye kadar geçerli Tahmin
Rüzgar kuzeydan kt
Görüş mesafesi: 10 km
25000 ft yükseklikte az bulutlu
Ayın 24'si saat 1600 UTC'den
Rüzgar güneydan 6 kt
Görüş mesafesi: 10 km
25000 ft yükseklikte parçalı bulutlu

TAF: KHKY 232320Z 2400/2424 00000KT P6SM FEW250 FM241600 19006KT P6SM SCT250

4.000'den fazla havaalanı için hava durumu gözlemleri ve tahminleri (METAR ve TAF raporları).

Kullanılabilir istasyonlar harita üzerinde sarı ve kırmızı noktalarla gösterilir.

İstasyonun adını görmek için fareyi noktanın üzerinde gezdirin.

Sonrasında hava gözlem ve tahminlerini görmek için tıklayın.

Haritayı değiştirmek için: yaklaştırmak için siyah artı işaretli yeşil düğmeye ve uzaklaştırmak için de eksi işaretli düğmeye hızla tıklayın; bitişik haritalar için yeşil okları kullanın.


METAR-TAF: